createdAt,value
2022-09-01T00:00:14.936Z,16.42
2022-09-01T00:02:43.341Z,16.39
2022-09-01T00:05:12.799Z,16.38
2022-09-01T00:07:40.269Z,16.33
2022-09-01T00:10:09.850Z,16.29
2022-09-01T00:12:37.783Z,16.26
2022-09-01T00:15:10.655Z,16.26
2022-09-01T00:17:38.265Z,16.21
2022-09-01T00:20:06.987Z,16.20
2022-09-01T00:22:34.716Z,16.17
2022-09-01T00:25:02.740Z,16.15
2022-09-01T00:27:30.655Z,16.15
2022-09-01T00:30:00.116Z,16.13
2022-09-01T00:32:28.687Z,16.07
2022-09-01T00:34:56.158Z,16.02
2022-09-01T00:37:23.713Z,15.97
2022-09-01T00:39:51.294Z,15.93
2022-09-01T00:42:19.350Z,15.88
2022-09-01T00:44:47.077Z,15.86
2022-09-01T00:47:14.963Z,15.86
2022-09-01T00:49:49.314Z,15.86
2022-09-01T00:52:29.053Z,15.87
2022-09-01T00:55:07.653Z,15.85
2022-09-01T00:57:35.309Z,15.85
2022-09-01T01:00:11.484Z,15.87
2022-09-01T01:02:42.243Z,15.86
2022-09-01T01:05:14.321Z,15.81
2022-09-01T01:07:47.609Z,15.75
2022-09-01T01:10:22.426Z,15.72
2022-09-01T01:12:51.610Z,15.67
2022-09-01T01:15:20.574Z,15.63
2022-09-01T01:17:48.018Z,15.60
2022-09-01T01:20:38.049Z,15.58
2022-09-01T01:23:23.617Z,15.58
2022-09-01T01:25:57.676Z,15.56
2022-09-01T01:28:35.961Z,15.56
2022-09-01T01:31:18.463Z,15.56
2022-09-01T01:33:55.248Z,15.54
2022-09-01T01:36:36.292Z,15.53
2022-09-01T01:39:16.401Z,15.51
2022-09-01T01:41:48.850Z,15.49
2022-09-01T01:44:22.524Z,15.47
2022-09-01T01:46:53.385Z,15.46
2022-09-01T01:49:26.161Z,15.42
2022-09-01T01:51:57.147Z,15.36
2022-09-01T01:54:32.479Z,15.31
2022-09-01T01:57:04.392Z,15.27
2022-09-01T01:59:33.783Z,15.23
2022-09-01T02:02:03.898Z,15.20
2022-09-01T02:04:34.167Z,15.19
2022-09-01T02:07:11.982Z,15.21
2022-09-01T02:09:44.069Z,15.20
2022-09-01T02:12:12.018Z,15.20
2022-09-01T02:14:43.777Z,15.19
2022-09-01T02:17:11.351Z,15.17
2022-09-01T02:19:43.257Z,15.15
2022-09-01T02:22:11.422Z,15.12
2022-09-01T02:24:46.418Z,15.10
2022-09-01T02:27:15.076Z,15.07
2022-09-01T02:29:43.678Z,15.04
2022-09-01T02:32:11.693Z,14.99
2022-09-01T02:34:39.884Z,14.92
2022-09-01T02:37:07.465Z,14.89
2022-09-01T02:39:35.965Z,14.87
2022-09-01T02:42:04.648Z,14.88
2022-09-01T02:44:32.675Z,14.84
2022-09-01T02:47:01.852Z,14.80
2022-09-01T02:49:29.975Z,14.76
2022-09-01T02:52:01.463Z,14.73
2022-09-01T02:54:32.861Z,14.73
2022-09-01T02:57:01.901Z,14.68
2022-09-01T02:59:30.549Z,14.66
2022-09-01T03:02:01.720Z,14.63
2022-09-01T03:04:35.478Z,14.60
2022-09-01T03:07:06.704Z,14.56
2022-09-01T03:09:35.433Z,14.51
2022-09-01T03:12:04.393Z,14.49
2022-09-01T03:14:32.701Z,14.44
2022-09-01T03:17:01.237Z,14.41
2022-09-01T03:19:32.289Z,14.37
2022-09-01T03:22:00.159Z,14.33
2022-09-01T03:24:30.758Z,14.32
2022-09-01T03:26:58.202Z,14.32
2022-09-01T03:29:25.707Z,14.30
2022-09-01T03:31:54.662Z,14.25
2022-09-01T03:34:23.779Z,14.18
2022-09-01T03:36:55.859Z,14.11
2022-09-01T03:39:27.383Z,14.07
2022-09-01T03:41:58.303Z,14.07
2022-09-01T03:44:27.049Z,14.03
2022-09-01T03:46:54.790Z,14.03
2022-09-01T03:49:25.197Z,13.98
2022-09-01T03:51:53.971Z,13.96
2022-09-01T03:54:30.302Z,13.94
2022-09-01T03:56:59.812Z,13.93
2022-09-01T03:59:28.479Z,13.91
2022-09-01T04:01:57.504Z,13.90
2022-09-01T04:04:25.860Z,13.88
2022-09-01T04:06:53.482Z,13.86
2022-09-01T04:09:21.110Z,13.86
2022-09-01T04:11:48.755Z,13.83
2022-09-01T04:14:17.455Z,13.79
2022-09-01T04:17:05.897Z,13.77
2022-09-01T04:19:39.180Z,13.74
2022-09-01T04:22:08.044Z,13.72
2022-09-01T04:24:45.291Z,13.69
2022-09-01T04:27:15.292Z,13.67
2022-09-01T04:29:46.506Z,13.67
2022-09-01T04:32:15.683Z,13.64
2022-09-01T04:34:46.221Z,13.62
2022-09-01T04:37:21.836Z,13.61
2022-09-01T04:39:57.782Z,13.60
2022-09-01T04:42:32.331Z,13.59
2022-09-01T04:45:08.059Z,13.57
2022-09-01T04:47:42.482Z,13.56
2022-09-01T04:50:14.838Z,13.54
2022-09-01T04:52:47.749Z,13.54
2022-09-01T04:55:29.874Z,13.51
2022-09-01T04:58:00.936Z,13.51
2022-09-01T05:00:32.652Z,13.50
2022-09-01T05:03:05.235Z,13.52
2022-09-01T05:05:54.178Z,13.47
2022-09-01T05:08:24.341Z,13.48
2022-09-01T05:10:56.754Z,13.53
2022-09-01T05:13:39.707Z,13.55
2022-09-01T05:16:15.746Z,13.59
2022-09-01T05:18:48.918Z,13.60
2022-09-01T05:21:22.355Z,13.61
2022-09-01T05:23:51.680Z,13.63
2022-09-01T05:26:26.117Z,13.63
2022-09-01T05:28:59.308Z,13.64
2022-09-01T05:31:34.923Z,13.66
2022-09-01T05:34:04.340Z,13.69
2022-09-01T05:36:33.533Z,13.73
2022-09-01T05:39:04.765Z,13.76
2022-09-01T05:41:34.520Z,13.79
2022-09-01T05:44:08.006Z,13.81
2022-09-01T05:46:38.979Z,13.84
2022-09-01T05:49:09.290Z,13.87
2022-09-01T05:51:46.068Z,13.92
2022-09-01T05:54:23.181Z,13.96
2022-09-01T05:56:53.456Z,14.03
2022-09-01T05:59:27.662Z,14.12
2022-09-01T06:02:08.807Z,14.21
2022-09-01T06:04:42.122Z,14.33
2022-09-01T06:07:16.520Z,14.45
2022-09-01T06:09:53.631Z,14.58
2022-09-01T06:12:28.037Z,14.68
2022-09-01T06:14:56.798Z,14.81
2022-09-01T06:17:28.878Z,14.96
2022-09-01T06:20:00.269Z,15.12
2022-09-01T06:22:29.160Z,15.25
2022-09-01T06:25:02.465Z,15.39
2022-09-01T06:27:38.785Z,15.52
2022-09-01T06:30:14.938Z,15.67
2022-09-01T06:32:49.620Z,15.84
2022-09-01T06:35:18.259Z,16.01
2022-09-01T06:37:47.216Z,16.16
2022-09-01T06:40:27.864Z,16.32
2022-09-01T06:42:55.897Z,16.46
2022-09-01T06:45:24.624Z,16.61
2022-09-01T06:47:57.731Z,16.75
2022-09-01T06:53:37.293Z,17.00
2022-09-01T06:56:13.260Z,17.08
2022-09-01T06:58:44.971Z,17.17
2022-09-01T07:01:15.420Z,17.21
2022-09-01T07:03:45.035Z,17.30
2022-09-01T07:09:20.397Z,17.45
2022-09-01T07:12:26.515Z,17.52
2022-09-01T07:17:52.432Z,17.69
2022-09-01T07:20:27.643Z,17.81
2022-09-01T07:23:06.400Z,17.86
2022-09-01T07:26:00.366Z,17.89
2022-09-01T07:28:42.096Z,17.99
2022-09-01T07:39:52.474Z,18.38
2022-09-01T07:43:12.949Z,18.47
2022-09-01T07:46:00.693Z,18.63
2022-09-01T07:51:37.746Z,19.08
2022-09-01T07:54:07.605Z,19.26
2022-09-01T07:56:39.871Z,19.39
2022-09-01T07:59:12.725Z,19.56
2022-09-01T08:01:51.264Z,19.76
2022-09-01T08:04:23.029Z,19.95
2022-09-01T08:06:51.375Z,20.14
2022-09-01T08:09:27.390Z,20.30
2022-09-01T08:12:07.508Z,20.46
2022-09-01T08:14:39.075Z,20.61
2022-09-01T08:19:58.837Z,20.87
2022-09-01T08:22:53.029Z,21.04
2022-09-01T08:25:26.213Z,21.22
2022-09-01T08:28:02.685Z,21.43
2022-09-01T08:30:32.593Z,21.61
2022-09-01T08:33:10.157Z,21.73
2022-09-01T08:35:41.172Z,21.86
2022-09-01T08:38:10.699Z,22.00
2022-09-01T08:40:42.384Z,22.15
2022-09-01T08:43:50.161Z,22.23
2022-09-01T08:46:28.709Z,22.25
2022-09-01T08:49:24.867Z,22.25
2022-09-01T08:52:23.092Z,22.32
2022-09-01T08:55:22.189Z,22.45
2022-09-01T08:57:59.137Z,22.58
2022-09-01T09:00:36.952Z,22.73
2022-09-01T09:03:44.338Z,22.84
2022-09-01T09:06:22.275Z,22.87
2022-09-01T09:09:01.090Z,22.95
2022-09-01T09:12:04.485Z,23.06
2022-09-01T09:14:50.374Z,23.14
2022-09-01T09:17:27.266Z,23.23
2022-09-01T09:19:54.851Z,23.33
2022-09-01T09:22:22.360Z,23.46
2022-09-01T09:25:04.193Z,23.59
2022-09-01T09:27:40.454Z,23.67
2022-09-01T09:30:24.703Z,23.78
2022-09-01T09:35:54.377Z,23.69
2022-09-01T09:38:33.563Z,23.68
2022-09-01T09:41:18.427Z,23.72
2022-09-01T09:44:00.161Z,23.75
2022-09-01T09:46:35.215Z,23.80
2022-09-01T09:49:36.387Z,23.83
2022-09-01T09:52:08.712Z,23.88
2022-09-01T09:54:40.237Z,23.90
2022-09-01T09:57:16.040Z,23.93
2022-09-01T10:00:01.440Z,23.95
2022-09-01T10:02:45.929Z,23.94
2022-09-01T10:05:27.959Z,23.98
2022-09-01T10:07:58.254Z,24.08
2022-09-01T10:10:56.530Z,24.25
2022-09-01T10:13:32.705Z,24.39
2022-09-01T10:16:16.080Z,24.53
2022-09-01T10:18:51.857Z,24.61
2022-09-01T10:21:38.617Z,24.69
2022-09-01T10:24:31.038Z,24.70
2022-09-01T10:27:14.810Z,24.67
2022-09-01T10:30:19.884Z,24.70
2022-09-01T10:33:10.989Z,24.83
2022-09-01T10:35:48.428Z,24.90
2022-09-01T10:38:25.034Z,25.02
2022-09-01T10:41:10.118Z,25.17
2022-09-01T10:43:50.968Z,25.33
2022-09-01T10:46:27.133Z,25.34
2022-09-01T10:49:33.683Z,25.39
2022-09-01T10:52:11.306Z,25.48
2022-09-01T10:54:51.057Z,25.57
2022-09-01T10:57:19.070Z,25.60
2022-09-01T10:59:56.711Z,25.59
2022-09-01T11:02:27.486Z,25.53
2022-09-01T11:04:55.774Z,25.52
2022-09-01T11:07:39.008Z,25.44
2022-09-01T11:10:41.909Z,25.31
2022-09-01T11:13:50.156Z,25.23
2022-09-01T11:16:47.170Z,25.29
2022-09-01T11:19:39.416Z,25.33
2022-09-01T11:22:14.270Z,25.21
2022-09-01T11:24:42.440Z,25.26
2022-09-01T11:27:48.249Z,25.41
2022-09-01T11:30:22.309Z,25.53
2022-09-01T11:33:22.532Z,25.60
2022-09-01T11:36:04.907Z,25.62
2022-09-01T11:38:48.896Z,25.64
2022-09-01T11:41:45.442Z,25.63
2022-09-01T11:44:52.468Z,25.68
2022-09-01T11:47:38.808Z,25.74
2022-09-01T11:50:36.401Z,25.80
2022-09-01T11:53:12.369Z,25.83
2022-09-01T11:55:47.288Z,25.95
2022-09-01T11:58:30.712Z,26.09
2022-09-01T12:01:35.114Z,26.12
2022-09-01T12:04:27.417Z,26.04
2022-09-01T12:07:30.163Z,25.96
2022-09-01T12:09:57.788Z,25.91
2022-09-01T12:12:37.265Z,25.91
2022-09-01T12:15:26.593Z,25.99
2022-09-01T12:18:13.269Z,26.01
2022-09-01T12:20:41.264Z,26.09
2022-09-01T12:23:27.557Z,26.10
2022-09-01T12:25:59.800Z,26.12
2022-09-01T12:28:31.419Z,26.24
2022-09-01T12:31:07.654Z,26.34
2022-09-01T12:33:36.275Z,26.47
2022-09-01T12:36:29.470Z,26.59
2022-09-01T12:39:18.090Z,26.66
2022-09-01T12:42:01.501Z,26.68
2022-09-01T12:44:31.700Z,26.77
2022-09-01T12:47:08.306Z,26.92
2022-09-01T12:49:48.009Z,27.06
2022-09-01T12:52:27.676Z,27.10
2022-09-01T12:58:09.804Z,27.13
2022-09-01T13:01:24.952Z,27.21
2022-09-01T13:04:22.070Z,27.29
2022-09-01T13:06:51.283Z,27.34
2022-09-01T13:09:18.743Z,27.32
2022-09-01T13:14:35.213Z,27.30
2022-09-01T13:17:02.617Z,27.35
2022-09-01T13:19:30.615Z,27.34
2022-09-01T13:21:58.373Z,27.26
2022-09-01T13:24:30.172Z,27.26
2022-09-01T13:29:50.354Z,27.06
2022-09-01T13:32:21.657Z,26.97
2022-09-01T13:34:53.140Z,26.94
2022-09-01T13:37:22.617Z,27.11
2022-09-01T13:39:51.036Z,27.32
2022-09-01T13:42:19.105Z,27.46
2022-09-01T13:44:49.695Z,27.54
2022-09-01T13:47:32.453Z,27.61
2022-09-01T13:50:10.392Z,27.68
2022-09-01T13:52:45.841Z,27.64
2022-09-01T13:55:28.872Z,27.71
2022-09-01T13:57:58.493Z,27.80
2022-09-01T14:00:32.085Z,27.91
2022-09-01T14:03:06.068Z,27.96
2022-09-01T14:05:38.447Z,27.95
2022-09-01T14:08:08.601Z,27.97
2022-09-01T14:10:43.264Z,28.07
2022-09-01T14:13:12.594Z,28.15
2022-09-01T14:15:40.668Z,28.11
2022-09-01T14:18:08.499Z,28.00
2022-09-01T14:20:42.341Z,27.99
2022-09-01T14:23:13.768Z,28.00
2022-09-01T14:25:51.551Z,28.15
2022-09-01T14:28:22.440Z,28.21
2022-09-01T14:33:24.261Z,28.22
2022-09-01T14:35:54.248Z,28.24
2022-09-01T14:38:21.825Z,28.16
2022-09-01T14:40:50.886Z,28.22
2022-09-01T14:43:19.977Z,28.32
2022-09-01T14:45:48.370Z,28.33
2022-09-01T14:48:18.869Z,28.33
2022-09-01T14:50:48.930Z,28.18
2022-09-01T14:53:16.440Z,28.04
2022-09-01T14:55:44.283Z,28.10
2022-09-01T14:58:12.002Z,28.21
2022-09-01T15:00:41.697Z,28.23
2022-09-01T15:03:10.709Z,28.32
2022-09-01T15:05:39.756Z,28.41
2022-09-01T15:08:12.962Z,28.52
2022-09-01T15:10:43.515Z,28.56
2022-09-01T15:13:12.256Z,28.38
2022-09-01T15:15:40.176Z,28.18
2022-09-01T15:18:07.691Z,27.98
2022-09-01T15:20:48.695Z,27.84
2022-09-01T15:23:24.367Z,27.94
2022-09-01T15:25:55.596Z,28.13
2022-09-01T15:28:24.332Z,28.23
2022-09-01T15:30:54.386Z,28.41
2022-09-01T15:33:22.155Z,28.63
2022-09-01T15:35:49.601Z,28.66
2022-09-01T15:38:17.508Z,28.60
2022-09-01T15:40:57.013Z,28.55
2022-09-01T15:43:28.173Z,28.68
2022-09-01T15:45:58.929Z,28.73
2022-09-01T15:48:28.791Z,28.63
2022-09-01T15:51:22.579Z,28.77
2022-09-01T15:53:53.023Z,28.87
2022-09-01T15:56:21.503Z,28.75
2022-09-01T15:59:00.867Z,28.58
2022-09-01T16:01:36.964Z,28.36
2022-09-01T16:04:09.394Z,28.31
2022-09-01T16:06:37.499Z,28.40
2022-09-01T16:09:06.871Z,28.57
2022-09-01T16:11:38.710Z,28.69
2022-09-01T16:14:06.531Z,28.83
2022-09-01T16:16:57.919Z,28.95
2022-09-01T16:19:56.514Z,28.79
2022-09-01T16:22:34.155Z,28.52
2022-09-01T16:25:23.599Z,28.50
2022-09-01T16:27:51.102Z,28.51
2022-09-01T16:30:23.951Z,28.68
2022-09-01T16:32:51.469Z,28.84
2022-09-01T16:35:29.420Z,28.98
2022-09-01T16:38:45.909Z,29.05
2022-09-01T16:41:43.818Z,28.99
2022-09-01T16:44:39.745Z,28.97
2022-09-01T16:47:39.255Z,29.01
2022-09-01T16:50:52.803Z,29.02
2022-09-01T16:53:46.014Z,28.91
2022-09-01T16:56:41.830Z,28.76
2022-09-01T17:00:01.830Z,28.49
2022-09-01T17:03:17.785Z,28.02
2022-09-01T17:05:55.259Z,27.70
2022-09-01T17:08:34.167Z,27.46
2022-09-01T17:11:34.852Z,27.37
2022-09-01T17:14:09.035Z,27.34
2022-09-01T17:16:45.017Z,27.34
2022-09-01T17:19:20.028Z,27.35
2022-09-01T17:22:00.363Z,27.35
2022-09-01T17:25:25.962Z,27.12
2022-09-01T17:28:16.647Z,26.71
2022-09-01T17:31:00.486Z,26.39
2022-09-01T17:34:14.642Z,26.13
2022-09-01T17:36:53.943Z,25.87
2022-09-01T17:39:52.950Z,25.66
2022-09-01T17:42:38.243Z,25.43
2022-09-01T17:45:51.069Z,25.23
2022-09-01T17:48:37.550Z,24.93
2022-09-01T17:51:49.790Z,24.70
2022-09-01T17:54:44.575Z,24.45
2022-09-01T17:57:24.142Z,24.20
2022-09-01T18:00:23.000Z,24.03
2022-09-01T18:03:02.363Z,23.84
2022-09-01T18:05:56.766Z,23.73
2022-09-01T18:08:40.254Z,23.58
2022-09-01T18:11:21.454Z,23.48
2022-09-01T18:14:12.148Z,23.32
2022-09-01T18:17:12.788Z,23.17
2022-09-01T18:19:47.978Z,23.02
2022-09-01T18:22:21.999Z,22.87
2022-09-01T18:24:58.306Z,22.75
2022-09-01T18:27:29.994Z,22.62
2022-09-01T18:30:01.319Z,22.52
2022-09-01T18:33:04.415Z,22.41
2022-09-01T18:36:08.317Z,22.28
2022-09-01T18:39:21.674Z,22.14
2022-09-01T18:42:27.894Z,22.00
2022-09-01T18:45:29.494Z,21.85
2022-09-01T18:48:19.614Z,21.74
2022-09-01T18:51:15.016Z,21.64
2022-09-01T18:54:07.182Z,21.53
2022-09-01T18:57:06.773Z,21.43
2022-09-01T19:00:19.624Z,21.36
2022-09-01T19:03:01.816Z,21.24
2022-09-01T19:06:06.615Z,21.15
2022-09-01T19:09:21.748Z,21.06
2022-09-01T19:14:31.980Z,20.90
2022-09-01T19:17:08.658Z,20.82
2022-09-01T19:19:51.570Z,20.74
2022-09-01T19:22:48.716Z,20.67
2022-09-01T19:25:39.355Z,20.58
2022-09-01T19:28:36.140Z,20.54
2022-09-01T19:31:13.077Z,20.47
2022-09-01T19:33:48.911Z,20.40
2022-09-01T19:36:39.996Z,20.31
2022-09-01T19:39:14.231Z,20.21
2022-09-01T19:42:12.917Z,20.12
2022-09-01T19:45:15.874Z,20.01
2022-09-01T19:47:55.511Z,19.92
2022-09-01T19:50:47.974Z,19.84
2022-09-01T19:53:43.199Z,19.75
2022-09-01T19:56:21.683Z,19.67
2022-09-01T19:59:04.606Z,19.60
2022-09-01T20:01:46.588Z,19.53
2022-09-01T20:04:42.919Z,19.47
2022-09-01T20:07:36.355Z,19.40
2022-09-01T20:10:15.341Z,19.34
2022-09-01T20:13:14.607Z,19.29
2022-09-01T20:15:53.427Z,19.21
2022-09-01T20:18:34.017Z,19.17
2022-09-01T20:21:08.925Z,19.10
2022-09-01T20:24:23.893Z,19.04
2022-09-01T20:26:58.950Z,18.95
2022-09-01T20:29:36.017Z,18.92
2022-09-01T20:32:04.729Z,18.86
2022-09-01T20:34:44.546Z,18.83
2022-09-01T20:37:32.424Z,18.77
2022-09-01T20:40:13.472Z,18.72
2022-09-01T20:42:54.358Z,18.67
2022-09-01T20:45:26.200Z,18.61
2022-09-01T20:48:05.209Z,18.58
2022-09-01T20:50:43.372Z,18.54
2022-09-01T20:53:48.426Z,18.48
2022-09-01T20:56:53.957Z,18.43
2022-09-01T20:59:56.298Z,18.38
2022-09-01T21:02:46.451Z,18.31
2022-09-01T21:06:05.227Z,18.25
2022-09-01T21:09:07.557Z,18.21
2022-09-01T21:11:46.319Z,18.16
2022-09-01T21:14:38.190Z,18.10
2022-09-01T21:17:30.885Z,18.01
2022-09-01T21:20:34.162Z,17.95
2022-09-01T21:23:01.794Z,17.91
2022-09-01T21:25:31.663Z,17.88
2022-09-01T21:28:03.865Z,17.86
2022-09-01T21:30:35.380Z,17.81
2022-09-01T21:33:02.980Z,17.74
2022-09-01T21:35:30.464Z,17.71
2022-09-01T21:37:57.980Z,17.72
2022-09-01T21:40:26.908Z,17.69
2022-09-01T21:43:03.101Z,17.67
2022-09-01T21:45:35.037Z,17.65
2022-09-01T21:48:05.569Z,17.59
2022-09-01T21:50:33.863Z,17.58
2022-09-01T21:53:01.411Z,17.54
2022-09-01T21:55:30.012Z,17.52
2022-09-01T21:57:59.179Z,17.49
2022-09-01T22:00:32.046Z,17.46
2022-09-01T22:03:01.764Z,17.42
2022-09-01T22:05:31.042Z,17.39
2022-09-01T22:07:58.925Z,17.35
2022-09-01T22:10:31.529Z,17.34
2022-09-01T22:13:03.526Z,17.31
2022-09-01T22:15:31.764Z,17.28
2022-09-01T22:17:59.297Z,17.25
2022-09-01T22:20:28.524Z,17.22
2022-09-01T22:23:01.691Z,17.19
2022-09-01T22:25:31.983Z,17.19
2022-09-01T22:28:03.155Z,17.16
2022-09-01T22:30:31.307Z,17.14
2022-09-01T22:33:00.266Z,17.14
2022-09-01T22:35:28.238Z,17.12
2022-09-01T22:37:55.675Z,17.12
2022-09-01T22:40:23.239Z,17.11
2022-09-01T22:42:52.420Z,17.09
2022-09-01T22:45:19.919Z,17.08
2022-09-01T22:47:47.714Z,17.06
2022-09-01T22:50:15.219Z,17.05
2022-09-01T22:52:43.686Z,17.00
2022-09-01T22:55:11.179Z,16.97
2022-09-01T22:57:38.739Z,16.97
2022-09-01T23:00:10.303Z,16.96
2022-09-01T23:02:37.982Z,16.91
2022-09-01T23:05:06.972Z,16.87
2022-09-01T23:07:37.700Z,16.83
2022-09-01T23:10:09.207Z,16.77
2022-09-01T23:12:37.300Z,16.72
2022-09-01T23:15:05.952Z,16.67
2022-09-01T23:17:33.406Z,16.60
2022-09-01T23:20:02.285Z,16.55
2022-09-01T23:22:29.774Z,16.50
2022-09-01T23:24:57.304Z,16.46
2022-09-01T23:27:24.767Z,16.43
2022-09-01T23:29:52.660Z,16.39
2022-09-01T23:32:20.238Z,16.35
2022-09-01T23:34:48.400Z,16.31
2022-09-01T23:37:16.928Z,16.31
2022-09-01T23:39:45.950Z,16.29
2022-09-01T23:42:13.412Z,16.28
2022-09-01T23:44:40.865Z,16.26
2022-09-01T23:47:08.369Z,16.26
2022-09-01T23:49:35.874Z,16.25
2022-09-01T23:52:03.379Z,16.23
2022-09-01T23:54:31.327Z,16.22
2022-09-01T23:56:59.323Z,16.19
2022-09-01T23:59:28.909Z,16.15
